• Join FlightAware (Why Join?)
  • Login
  • US Flag 
04:23PM EDT


 

Airport Tracker/Info


-or-


 

Live Flight TrackerFlight Track Log ✈ N589H ✈ 06-Mar-2014 ✈ KPIE - KPBI

Flight Track Log - Related Links

Times and Time Zones

All times are in EST time to prevent confusion due to time zone crossing. See the N589H flight status page for this flight to view local times or setup timezone preferences in your user account.

Time Position Orientation Groundspeed Altitude Reporting Facility
EST Latitude Longitude Course Direction KTS MPH feet Rate Location/Type
09:03AM 27.8833 -82.6833 204° Southwest 175 201 500  Level Tampa TRACON
09:04AM 27.8500 -82.7000 204° Southwest 184 212 1,600 1,380 Climbing Tampa TRACON
09:05AM 27.7833 -82.7000 180° South 208 239 3,200 1,320 Climbing Tampa TRACON
09:06AM 27.7333 -82.6833 164° South 211 243 4,600 1,440 Climbing Tampa TRACON
09:08AM 27.6300 -82.6325 156° South 227 261 7,400 1,500 Climbing Miami Center
09:09AM 27.5811 -82.5867 140° Southeast 233 268 8,900 1,500 Climbing Miami Center
09:10AM 27.5342 -82.5378 137° Southeast 233 268 10,500 1,500 Climbing Miami Center
09:11AM 27.4853 -82.4881 138° Southeast 233 268 12,000 1,500 Climbing Miami Center
09:12AM 27.4358 -82.4367 137° Southeast 240 276 13,600 1,500 Climbing Miami Center
09:13AM 27.3953 -82.3733 126° Southeast 260 299 15,100 1,500 Climbing Miami Center
09:14AM 27.3619 -82.2800 112° Southeast 272 313 17,000 1,620 Climbing Miami Center
09:15AM 27.3267 -82.1822 112° Southeast 272 313 18,900 840 Climbing Miami Center
09:17AM 27.2936 -82.0908 112° Southeast 297 342 19,000  Climbing Miami Center
09:18AM 27.2481 -81.9617 112° Southeast 342 394 19,000  Level Miami Center
09:19AM 27.2139 -81.8692 113° Southeast 341 392 19,000  Level Miami Center
09:20AM 27.1772 -81.7686 112° Southeast 334 384 19,000  Level Miami Center
09:21AM 27.1428 -81.6714 112° Southeast 327 376 19,000  Level Miami Center
09:22AM 27.1083 -81.5778 112° Southeast 314 361 19,000 -420 Level Miami Center
09:23AM 27.0733 -81.4806 112° Southeast 316 364 18,100 -840 Descending Miami Center
09:24AM 27.0375 -81.3811 112° Southeast 326 375 17,100 -1,080 Descending Miami Center
09:25AM 26.9944 -81.2678 113° Southeast 328 377 15,900 -1,260 Descending Miami Center
09:26AM 26.9669 -81.1919 112° Southeast 322 371 14,600 -1,740 Descending Miami Center
09:27AM 26.9264 -81.0822 112° Southeast 306 352 12,000 -2,220 Descending Miami Center
09:28AM 26.8892 -80.9778 112° Southeast 294 338 9,600 -2,160 Descending Miami Center
09:29AM 26.8586 -80.8939 112° Southeast 284 327 7,600 -1,320 Descending Miami Center
09:30AM 26.8275 -80.8125 113° Southeast 274 315 7,000 -300 Descending Miami Center
09:31AM 26.8097 -80.7231 103° East 289 333 7,000 -360 Level Miami Center
09:33AM 26.8011 -80.6364 96° East 292 336 6,300 -900 Descending Miami Center
09:34AM 26.7872 -80.5472 100° East 282 325 5,200 -1,020 Descending Miami Center
09:35AM 26.7536 -80.4700 116° Southeast 265 305 4,200 -900 Descending Miami Center
09:36AM 26.7339 -80.4181 113° Southeast 248 285 3,400 -1,020 Descending Miami Center
09:37AM 26.7000 -80.3403 116° Southeast 233 268 2,200 -720 Descending Miami Center
09:38AM 26.6917 -80.2728 98° East 221 254 2,000 -120 Descending Miami Center
09:39AM 26.6861 -80.2081 95° East 188 216 2,000 -120 Level Miami Center
09:40AM 26.6875 -80.1731 87° East 173 199 1,800 -240 Descending Miami Center
09:42AM 26.6832 -80.0956 101° East  Level Estimated
09:49AM 26.6832 -80.0956 101° East  Level Estimated
09:50AM 26.6832 -80.0956 101° East  Level Estimated